createdAt,value
2018-04-27T00:00:43.822Z,91.13
2018-04-27T00:01:43.806Z,91.42
2018-04-27T00:02:43.788Z,91.89
2018-04-27T00:03:43.764Z,91.70
2018-04-27T00:04:43.753Z,91.89
2018-04-27T00:05:43.726Z,91.70
2018-04-27T00:06:43.710Z,92.08
2018-04-27T00:07:43.705Z,91.89
2018-04-27T00:08:43.668Z,91.99
2018-04-27T00:09:43.649Z,92.56
2018-04-27T00:10:43.632Z,92.27
2018-04-27T00:11:43.611Z,92.36
2018-04-27T00:12:43.592Z,92.18
2018-04-27T00:13:43.581Z,92.75
2018-04-27T00:14:43.553Z,92.65
2018-04-27T00:15:43.538Z,93.23
2018-04-27T00:16:43.516Z,93.04
2018-04-27T00:17:43.497Z,92.84
2018-04-27T00:18:43.476Z,93.41
2018-04-27T00:19:43.456Z,93.41
2018-04-27T00:20:43.439Z,93.32
2018-04-27T00:21:43.423Z,93.60
2018-04-27T00:22:43.403Z,93.23
2018-04-27T00:23:43.380Z,93.13
2018-04-27T00:24:43.362Z,93.13
2018-04-27T00:25:43.351Z,93.70
2018-04-27T00:26:43.322Z,93.51
2018-04-27T00:27:43.303Z,93.13
2018-04-27T00:28:43.283Z,93.60
2018-04-27T00:29:43.268Z,93.70
2018-04-27T00:30:43.250Z,93.70
2018-04-27T00:31:43.225Z,94.08
2018-04-27T00:32:43.207Z,94.56
2018-04-27T00:33:43.189Z,94.51
2018-04-27T00:34:43.169Z,94.32
2018-04-27T00:35:43.150Z,94.51
2018-04-27T00:36:43.135Z,94.18
2018-04-27T00:37:43.112Z,94.27
2018-04-27T00:38:43.167Z,94.08
2018-04-27T00:39:43.080Z,94.46
2018-04-27T00:40:43.053Z,94.56
2018-04-27T00:41:43.111Z,94.27
2018-04-27T00:42:43.015Z,94.08
2018-04-27T00:43:42.999Z,93.79
2018-04-27T00:44:42.976Z,93.60
2018-04-27T00:45:42.965Z,93.70
2018-04-27T00:46:42.938Z,93.89
2018-04-27T00:47:42.919Z,93.79
2018-04-27T00:48:42.899Z,93.79
2018-04-27T00:49:42.881Z,94.27
2018-04-27T00:50:42.862Z,94.18
2018-04-27T00:51:42.846Z,94.37
2018-04-27T00:52:42.823Z,94.18
2018-04-27T00:53:42.803Z,94.37
2018-04-27T00:54:42.782Z,94.37
2018-04-27T00:55:42.764Z,94.37
2018-04-27T00:56:42.745Z,94.08
2018-04-27T00:57:42.726Z,94.37
2018-04-27T00:58:42.707Z,93.84
2018-04-27T00:59:42.688Z,94.37
2018-04-27T01:00:42.669Z,94.46
2018-04-27T01:01:42.649Z,94.74
2018-04-27T01:02:42.630Z,94.74
2018-04-27T01:03:42.615Z,94.27
2018-04-27T01:04:42.592Z,94.60
2018-04-27T01:05:42.583Z,94.70
2018-04-27T01:06:42.556Z,95.27
2018-04-27T01:07:42.533Z,95.08
2018-04-27T01:08:42.515Z,94.98
2018-04-27T01:09:42.496Z,94.98
2018-04-27T01:10:42.474Z,95.36
2018-04-27T01:11:42.456Z,95.27
2018-04-27T01:12:42.436Z,95.17
2018-04-27T01:13:42.419Z,95.27
2018-04-27T01:14:42.398Z,95.46
2018-04-27T01:15:42.378Z,95.17
2018-04-27T01:16:42.360Z,95.36
2018-04-27T01:17:42.348Z,95.36
2018-04-27T01:18:42.320Z,94.98
2018-04-27T01:19:42.301Z,95.27
2018-04-27T01:20:42.282Z,95.65
2018-04-27T01:21:42.262Z,95.36
2018-04-27T01:22:42.241Z,95.27
2018-04-27T01:23:42.223Z,95.46
2018-04-27T01:24:42.204Z,95.08
2018-04-27T01:25:42.182Z,95.46
2018-04-27T01:26:42.164Z,95.46
2018-04-27T01:27:42.159Z,95.46
2018-04-27T01:28:42.133Z,95.36
2018-04-27T01:29:42.104Z,95.84
2018-04-27T01:30:42.085Z,95.46
2018-04-27T01:31:42.069Z,95.65
2018-04-27T01:32:42.053Z,95.17
2018-04-27T01:33:42.026Z,95.56
2018-04-27T01:34:42.004Z,95.36
2018-04-27T01:35:41.987Z,95.08
2018-04-27T01:36:41.967Z,95.46
2018-04-27T01:37:41.947Z,95.36
2018-04-27T01:38:41.927Z,95.65
2018-04-27T01:39:41.908Z,95.84
2018-04-27T01:40:41.888Z,95.56
2018-04-27T01:41:41.869Z,95.56
2018-04-27T01:42:41.848Z,95.84
2018-04-27T01:43:41.830Z,95.94
2018-04-27T01:44:41.811Z,95.94
2018-04-27T01:45:41.791Z,95.36
2018-04-27T01:46:41.772Z,95.36
2018-04-27T01:47:41.756Z,95.56
2018-04-27T01:48:41.734Z,95.65
2018-04-27T01:49:41.714Z,95.65
2018-04-27T01:50:41.692Z,95.56
2018-04-27T01:51:41.673Z,95.27
2018-04-27T01:52:41.654Z,95.08
2018-04-27T01:53:41.637Z,95.27
2018-04-27T01:54:41.624Z,95.17
2018-04-27T01:55:41.596Z,95.36
2018-04-27T01:56:41.581Z,95.27
2018-04-27T01:57:41.559Z,95.08
2018-04-27T01:58:41.536Z,95.56
2018-04-27T01:59:41.517Z,95.46
2018-04-27T02:00:41.500Z,95.75
2018-04-27T02:01:41.481Z,95.94
2018-04-27T02:02:41.465Z,95.84
2018-04-27T02:03:41.440Z,95.65
2018-04-27T02:04:41.417Z,95.94
2018-04-27T02:05:41.401Z,96.12
2018-04-27T02:06:41.380Z,96.50
2018-04-27T02:07:41.370Z,95.56
2018-04-27T02:08:41.365Z,95.36
2018-04-27T02:09:41.322Z,95.17
2018-04-27T02:10:41.299Z,95.46
2018-04-27T02:11:41.281Z,95.27
2018-04-27T02:12:41.266Z,95.17
2018-04-27T02:13:41.242Z,95.94
2018-04-27T02:14:41.224Z,96.12
2018-04-27T02:15:41.202Z,95.65
2018-04-27T02:16:41.183Z,95.84
2018-04-27T02:17:41.163Z,95.84
2018-04-27T02:18:41.143Z,96.12
2018-04-27T02:19:41.121Z,95.84
2018-04-27T02:20:41.109Z,95.56
2018-04-27T02:21:41.084Z,95.65
2018-04-27T02:22:41.064Z,95.94
2018-04-27T02:23:41.045Z,95.84
2018-04-27T02:24:41.032Z,95.65
2018-04-27T02:25:41.004Z,96.41
2018-04-27T02:26:40.984Z,96.03
2018-04-27T02:27:40.963Z,96.03
2018-04-27T02:28:40.941Z,96.45
2018-04-27T02:29:40.932Z,96.17
2018-04-27T02:30:40.908Z,96.84
2018-04-27T02:31:40.891Z,97.31
2018-04-27T02:32:40.862Z,97.41
2018-04-27T02:33:40.852Z,97.22
2018-04-27T02:34:40.825Z,97.17
2018-04-27T02:35:40.801Z,96.84
2018-04-27T02:36:40.785Z,97.12
2018-04-27T02:37:40.763Z,96.84
2018-04-27T02:38:40.741Z,97.12
2018-04-27T02:39:40.720Z,96.84
2018-04-27T02:40:40.700Z,96.17
2018-04-27T02:41:40.689Z,96.45
2018-04-27T02:42:40.662Z,96.65
2018-04-27T02:43:40.643Z,96.84
2018-04-27T02:44:40.620Z,97.22
2018-04-27T02:45:40.600Z,97.22
2018-04-27T02:46:40.580Z,96.93
2018-04-27T02:47:40.558Z,96.84
2018-04-27T02:48:40.540Z,96.36
2018-04-27T02:49:40.521Z,96.45
2018-04-27T02:50:40.500Z,96.55
2018-04-27T02:51:40.479Z,96.45
2018-04-27T02:52:40.461Z,96.26
2018-04-27T02:53:40.441Z,96.36
2018-04-27T02:54:40.419Z,97.12
2018-04-27T02:55:40.400Z,96.74
2018-04-27T02:56:40.384Z,96.84
2018-04-27T02:57:40.361Z,96.65
2018-04-27T02:58:40.339Z,96.45
2018-04-27T02:59:40.319Z,96.31
2018-04-27T03:00:40.300Z,96.55
2018-04-27T03:01:40.289Z,95.98
2018-04-27T03:02:40.258Z,96.50
2018-04-27T03:03:40.239Z,95.89
2018-04-27T03:04:40.225Z,96.36
2018-04-27T03:05:40.201Z,96.45
2018-04-27T03:06:40.185Z,96.22
2018-04-27T03:07:40.159Z,96.36
2018-04-27T03:08:40.147Z,96.36
2018-04-27T03:09:40.229Z,96.45
2018-04-27T03:10:40.099Z,96.36
2018-04-27T03:11:40.079Z,96.65
2018-04-27T03:12:40.062Z,97.22
2018-04-27T03:13:40.040Z,96.93
2018-04-27T03:14:40.018Z,97.60
2018-04-27T03:15:39.997Z,97.78
2018-04-27T03:16:39.986Z,97.03
2018-04-27T03:17:39.957Z,97.12
2018-04-27T03:18:39.938Z,97.78
2018-04-27T03:19:39.921Z,97.60
2018-04-27T03:20:39.897Z,97.41
2018-04-27T03:21:39.880Z,97.78
2018-04-27T03:22:39.859Z,98.17
2018-04-27T03:23:39.908Z,97.97
2018-04-27T03:24:39.818Z,97.97
2018-04-27T03:25:39.802Z,97.88
2018-04-27T03:26:39.775Z,98.45
2018-04-27T03:27:39.756Z,98.26
2018-04-27T03:28:39.741Z,98.07
2018-04-27T03:29:39.715Z,98.17
2018-04-27T03:30:39.696Z,97.88
2018-04-27T03:31:39.681Z,97.97
2018-04-27T03:32:39.662Z,97.88
2018-04-27T03:33:39.634Z,98.17
2018-04-27T03:34:39.612Z,98.64
2018-04-27T03:35:39.592Z,98.83
2018-04-27T03:36:39.571Z,97.88
2018-04-27T03:37:39.552Z,98.26
2018-04-27T03:38:39.529Z,98.36
2018-04-27T03:39:39.610Z,98.45
2018-04-27T03:40:39.491Z,98.45
2018-04-27T03:41:39.470Z,97.97
2018-04-27T03:42:39.455Z,98.07
2018-04-27T03:43:39.430Z,98.07
2018-04-27T03:44:39.408Z,98.17
2018-04-27T03:45:39.389Z,97.88
2018-04-27T03:46:39.375Z,97.41
2018-04-27T03:47:39.347Z,97.60
2018-04-27T03:48:39.326Z,97.60
2018-04-27T03:49:39.307Z,97.78
2018-04-27T03:50:39.287Z,97.60
2018-04-27T03:51:39.266Z,97.22
2018-04-27T03:52:39.248Z,97.22
2018-04-27T03:53:39.226Z,97.78
2018-04-27T03:54:39.205Z,97.60
2018-04-27T03:55:39.185Z,97.41
2018-04-27T03:56:39.168Z,97.60
2018-04-27T03:57:39.145Z,97.41
2018-04-27T03:58:39.125Z,97.60
2018-04-27T03:59:39.106Z,97.69
2018-04-27T04:00:39.084Z,97.12
2018-04-27T04:01:39.073Z,97.69
2018-04-27T04:02:39.044Z,97.50
2018-04-27T04:03:39.022Z,97.78
2018-04-27T04:04:39.005Z,97.31
2018-04-27T04:05:38.986Z,97.03
2018-04-27T04:06:38.985Z,97.69
2018-04-27T04:07:38.946Z,97.60
2018-04-27T04:08:38.922Z,97.03
2018-04-27T04:09:38.903Z,96.55
2018-04-27T04:10:38.881Z,97.03
2018-04-27T04:11:38.863Z,96.93
2018-04-27T04:12:38.839Z,97.31
2018-04-27T04:13:38.870Z,97.78
2018-04-27T04:14:38.798Z,97.12
2018-04-27T04:15:38.779Z,97.69
2018-04-27T04:16:38.759Z,97.60
2018-04-27T04:17:38.738Z,97.50
2018-04-27T04:18:38.723Z,97.12
2018-04-27T04:19:38.697Z,96.84
2018-04-27T04:20:38.685Z,97.12
2018-04-27T04:21:38.657Z,97.31
2018-04-27T04:22:38.634Z,97.03
2018-04-27T04:23:38.623Z,97.41
2018-04-27T04:24:38.596Z,97.12
2018-04-27T04:25:38.592Z,97.41
2018-04-27T04:26:38.554Z,97.41
2018-04-27T04:27:38.534Z,96.74
2018-04-27T04:28:38.664Z,96.93
2018-04-27T04:29:38.493Z,97.31
2018-04-27T04:30:38.471Z,97.88
2018-04-27T04:31:38.464Z,97.12
2018-04-27T04:32:38.435Z,97.03
2018-04-27T04:33:38.417Z,97.22
2018-04-27T04:34:38.390Z,96.93
2018-04-27T04:35:38.379Z,96.84
2018-04-27T04:36:38.352Z,96.84
2018-04-27T04:37:38.330Z,96.84
2018-04-27T04:38:38.309Z,96.74
2018-04-27T04:39:38.294Z,96.74
2018-04-27T04:40:38.269Z,97.22
2018-04-27T04:41:38.249Z,96.84
2018-04-27T04:42:38.228Z,96.93
2018-04-27T04:43:38.211Z,97.12
2018-04-27T04:44:38.191Z,97.03
2018-04-27T04:45:38.169Z,96.93
2018-04-27T04:46:38.156Z,97.03
2018-04-27T04:47:38.132Z,96.36
2018-04-27T04:48:38.107Z,96.36
2018-04-27T04:49:38.088Z,95.79
2018-04-27T04:50:38.217Z,96.08
2018-04-27T04:51:38.047Z,96.45
2018-04-27T04:52:38.092Z,95.70
2018-04-27T04:53:38.007Z,96.08
2018-04-27T04:54:37.987Z,96.93
2018-04-27T04:55:37.968Z,97.03
2018-04-27T04:56:38.749Z,96.84
2018-04-27T04:57:37.938Z,96.55
2018-04-27T04:58:37.911Z,95.60
2018-04-27T04:59:37.887Z,96.17
2018-04-27T05:00:37.870Z,96.84
2018-04-27T05:01:37.846Z,96.74
2018-04-27T05:02:37.825Z,96.74
2018-04-27T05:03:37.805Z,96.65
2018-04-27T05:04:37.785Z,96.17
2018-04-27T05:05:37.766Z,96.17
2018-04-27T05:06:37.744Z,96.08
2018-04-27T05:07:37.728Z,95.32
2018-04-27T05:08:37.707Z,95.12
2018-04-27T05:09:37.685Z,95.12
2018-04-27T05:10:37.765Z,95.12
2018-04-27T05:11:37.647Z,95.22
2018-04-27T05:12:37.625Z,95.46
2018-04-27T05:13:37.608Z,94.98
2018-04-27T05:14:37.593Z,94.42
2018-04-27T05:15:37.564Z,93.84
2018-04-27T05:16:37.544Z,94.03
2018-04-27T05:17:37.531Z,94.42
2018-04-27T05:18:37.503Z,94.03
2018-04-27T05:19:37.483Z,94.46
2018-04-27T05:20:37.464Z,94.74
2018-04-27T05:21:37.444Z,94.93
2018-04-27T05:22:37.424Z,94.79
2018-04-27T05:23:37.404Z,94.42
2018-04-27T05:24:37.459Z,93.27
2018-04-27T05:25:37.361Z,92.65
2018-04-27T05:26:37.352Z,91.51
2018-04-27T05:27:37.335Z,90.75
2018-04-27T05:28:37.307Z,89.27
2018-04-27T05:29:37.383Z,87.18
2018-04-27T05:30:37.269Z,87.46
2018-04-27T05:31:37.245Z,86.27
2018-04-27T05:32:37.223Z,83.93
2018-04-27T05:33:37.205Z,82.03
2018-04-27T05:34:37.182Z,82.69
2018-04-27T05:35:37.166Z,79.25
2018-04-27T05:36:37.147Z,76.14
2018-04-27T05:37:37.128Z,74.52
2018-04-27T05:38:37.124Z,73.28
2018-04-27T05:39:37.090Z,73.41
2018-04-27T05:40:37.145Z,72.07
2018-04-27T05:41:37.056Z,71.98
2018-04-27T05:42:37.033Z,71.50
2018-04-27T05:43:37.022Z,70.67
2018-04-27T05:44:37.003Z,69.15
2018-04-27T05:45:36.991Z,68.16
2018-04-27T05:46:36.969Z,65.04
2018-04-27T05:47:36.955Z,63.54
2018-04-27T05:48:36.938Z,62.11
2018-04-27T05:49:36.973Z,61.91
2018-04-27T05:50:36.906Z,62.17
2018-04-27T05:51:36.893Z,62.74
2018-04-27T05:52:36.879Z,62.74
2018-04-27T05:53:36.869Z,61.82
2018-04-27T05:54:36.850Z,60.96
2018-04-27T05:55:36.884Z,60.58
2018-04-27T05:56:36.825Z,61.05
2018-04-27T05:57:36.810Z,61.79
2018-04-27T05:58:36.794Z,62.90
2018-04-27T05:59:36.782Z,63.57
2018-04-27T06:00:36.770Z,63.76
2018-04-27T06:01:36.764Z,64.05
2018-04-27T06:02:36.754Z,64.15
2018-04-27T06:03:36.733Z,64.15
2018-04-27T06:04:36.785Z,63.39
2018-04-27T06:05:36.714Z,63.76
2018-04-27T06:06:36.704Z,63.76
2018-04-27T06:07:36.691Z,62.74
2018-04-27T06:08:36.676Z,62.17
2018-04-27T06:09:36.663Z,61.54
2018-04-27T06:10:36.652Z,59.65
2018-04-27T06:11:36.639Z,57.76
2018-04-27T06:12:36.632Z,57.67
2018-04-27T06:13:36.618Z,57.73
2018-04-27T06:14:36.607Z,58.47
2018-04-27T06:15:36.598Z,59.88
2018-04-27T06:16:36.586Z,60.19
2018-04-27T06:17:36.584Z,59.78
2018-04-27T06:18:36.565Z,60.26
2018-04-27T06:19:36.561Z,61.02
2018-04-27T06:20:36.552Z,61.47
2018-04-27T06:21:36.536Z,62.62
2018-04-27T06:22:36.522Z,61.76
2018-04-27T06:23:36.515Z,61.66
2018-04-27T06:24:36.501Z,62.87
2018-04-27T06:25:36.492Z,63.89
2018-04-27T06:26:36.482Z,64.91
2018-04-27T06:27:36.470Z,66.06
2018-04-27T06:28:36.469Z,66.92
2018-04-27T06:29:36.458Z,67.27
2018-04-27T06:30:36.441Z,68.22
2018-04-27T06:31:36.428Z,68.03
2018-04-27T06:32:36.418Z,68.12
2018-04-27T06:33:36.406Z,67.77
2018-04-27T06:34:36.395Z,67.30
2018-04-27T06:35:36.385Z,67.24
2018-04-27T06:36:36.373Z,66.56
2018-04-27T06:37:36.365Z,65.61
2018-04-27T06:38:36.349Z,65.23
2018-04-27T06:39:36.339Z,64.75
2018-04-27T06:40:36.327Z,65.01
2018-04-27T06:41:36.315Z,65.04
2018-04-27T06:42:36.302Z,65.01
2018-04-27T06:43:36.290Z,65.96
2018-04-27T06:44:36.286Z,65.87
2018-04-27T06:45:36.265Z,66.53
2018-04-27T06:46:36.260Z,66.44
2018-04-27T06:47:36.242Z,67.07
2018-04-27T06:48:36.229Z,66.02
2018-04-27T06:49:36.217Z,66.31
2018-04-27T06:50:36.204Z,67.17
2018-04-27T06:51:36.213Z,67.49
2018-04-27T06:52:36.188Z,67.27
2018-04-27T06:53:36.167Z,67.30
2018-04-27T06:54:36.154Z,67.01
2018-04-27T06:55:36.141Z,67.27
2018-04-27T06:56:36.131Z,67.93
2018-04-27T06:57:36.117Z,68.41
2018-04-27T06:58:36.103Z,68.03
2018-04-27T06:59:36.099Z,67.83
2018-04-27T07:00:36.078Z,67.87
2018-04-27T07:01:36.069Z,68.22
2018-04-27T07:02:36.051Z,67.30
2018-04-27T07:03:36.038Z,66.63
2018-04-27T07:04:36.025Z,66.35
2018-04-27T07:05:36.012Z,66.92
2018-04-27T07:06:35.996Z,65.87
2018-04-27T07:07:35.991Z,65.39
2018-04-27T07:08:35.971Z,64.91
2018-04-27T07:09:35.962Z,64.72
2018-04-27T07:10:35.945Z,65.30
2018-04-27T07:11:35.994Z,64.72
2018-04-27T07:12:35.932Z,64.81
2018-04-27T07:13:35.904Z,64.65
2018-04-27T07:14:35.888Z,64.65
2018-04-27T07:15:35.876Z,63.99
2018-04-27T07:16:35.869Z,64.56
2018-04-27T07:17:35.848Z,63.99
2018-04-27T07:18:35.834Z,63.70
2018-04-27T07:19:35.820Z,63.51
2018-04-27T07:20:35.807Z,62.94
2018-04-27T07:21:35.795Z,63.70
2018-04-27T07:22:35.780Z,63.89
2018-04-27T07:23:35.765Z,63.99
2018-04-27T07:24:35.753Z,63.80
2018-04-27T07:25:35.738Z,63.80
2018-04-27T07:26:35.732Z,63.70
2018-04-27T07:27:35.711Z,63.99
2018-04-27T07:28:35.696Z,63.70
2018-04-27T07:29:35.691Z,63.51
2018-04-27T07:30:35.668Z,63.89
2018-04-27T07:31:35.654Z,63.42
2018-04-27T07:32:35.640Z,63.70
2018-04-27T07:33:35.626Z,64.31
2018-04-27T07:34:35.620Z,63.35
2018-04-27T07:35:35.608Z,63.07
2018-04-27T07:36:35.583Z,61.54
2018-04-27T07:37:35.569Z,61.92
2018-04-27T07:38:35.554Z,61.16
2018-04-27T07:39:35.583Z,61.16
2018-04-27T07:40:35.529Z,61.06
2018-04-27T07:41:35.514Z,60.87
2018-04-27T07:42:35.499Z,61.35
2018-04-27T07:43:35.491Z,61.63
2018-04-27T07:44:35.470Z,61.98
2018-04-27T07:45:35.457Z,61.72
2018-04-27T07:46:35.442Z,61.54
2018-04-27T07:47:35.428Z,61.54
2018-04-27T07:48:35.415Z,61.25
2018-04-27T07:49:35.400Z,60.77
2018-04-27T07:50:35.387Z,61.28
2018-04-27T07:51:35.377Z,60.39
2018-04-27T07:52:35.375Z,59.84
2018-04-27T07:53:35.348Z,59.94
2018-04-27T07:54:35.336Z,59.47
2018-04-27T07:55:35.323Z,59.56
2018-04-27T07:56:35.307Z,59.84
2018-04-27T07:57:35.302Z,59.94
2018-04-27T07:58:35.289Z,58.89
2018-04-27T07:59:35.277Z,58.80
2018-04-27T08:00:35.264Z,58.41
2018-04-27T08:01:35.243Z,58.32
2018-04-27T08:02:35.235Z,58.89
2018-04-27T08:03:35.223Z,58.25
2018-04-27T08:04:35.204Z,57.68
2018-04-27T08:05:35.190Z,57.58
2018-04-27T08:06:35.184Z,57.20
2018-04-27T08:07:35.163Z,56.72
2018-04-27T08:08:35.152Z,57.68
2018-04-27T08:09:35.139Z,57.46
2018-04-27T08:10:35.129Z,56.24
2018-04-27T08:11:35.116Z,55.67
2018-04-27T08:12:35.109Z,56.21
2018-04-27T08:13:35.089Z,56.21
2018-04-27T08:14:35.079Z,55.07
2018-04-27T08:15:35.071Z,54.78
2018-04-27T08:16:35.064Z,55.26
2018-04-27T08:17:35.037Z,56.12
2018-04-27T08:18:35.064Z,56.40
2018-04-27T08:19:35.019Z,55.83
2018-04-27T08:20:35.006Z,55.10
2018-04-27T08:21:34.986Z,54.80
2018-04-27T08:22:34.972Z,54.80
2018-04-27T08:23:34.976Z,55.00
2018-04-27T08:24:35.031Z,54.61
2018-04-27T08:25:34.935Z,53.47
2018-04-27T08:26:34.928Z,53.75
2018-04-27T08:27:34.917Z,54.52
2018-04-27T08:28:34.904Z,54.52
2018-04-27T08:29:34.884Z,54.80
2018-04-27T08:30:34.870Z,54.07
2018-04-27T08:31:34.862Z,53.85
2018-04-27T08:32:34.846Z,53.85
2018-04-27T08:33:34.833Z,54.14
2018-04-27T08:34:34.824Z,54.43
2018-04-27T08:35:34.808Z,53.47
2018-04-27T08:36:34.794Z,53.75
2018-04-27T08:37:34.781Z,53.40
2018-04-27T08:38:34.768Z,53.49
2018-04-27T08:39:34.761Z,53.28
2018-04-27T08:40:34.742Z,52.89
2018-04-27T08:41:34.730Z,52.54
2018-04-27T08:42:34.715Z,51.97
2018-04-27T08:43:34.704Z,51.97
2018-04-27T08:44:34.700Z,52.22
2018-04-27T08:45:34.679Z,52.80
2018-04-27T08:46:34.674Z,53.18
2018-04-27T08:47:34.656Z,52.42
2018-04-27T08:48:34.641Z,52.70
2018-04-27T08:49:34.630Z,53.28
2018-04-27T08:50:34.776Z,52.83
2018-04-27T08:51:34.603Z,52.44
2018-04-27T08:52:34.607Z,50.91
2018-04-27T08:53:34.578Z,50.43
2018-04-27T08:54:34.565Z,50.05
2018-04-27T08:55:34.561Z,49.76
2018-04-27T08:56:34.540Z,50.91
2018-04-27T08:57:34.535Z,51.01
2018-04-27T08:58:34.516Z,51.58
2018-04-27T08:59:34.501Z,51.48
2018-04-27T09:00:34.489Z,51.48
2018-04-27T09:01:34.479Z,51.68
2018-04-27T09:02:34.464Z,52.34
2018-04-27T09:03:34.451Z,51.68
2018-04-27T09:04:34.438Z,51.68
2018-04-27T09:05:34.428Z,51.13
2018-04-27T09:06:34.417Z,50.74
2018-04-27T09:07:34.400Z,50.93
2018-04-27T09:08:34.389Z,50.15
2018-04-27T09:09:34.390Z,49.86
2018-04-27T09:10:34.364Z,49.79
2018-04-27T09:11:34.361Z,49.69
2018-04-27T09:12:34.341Z,49.79
2018-04-27T09:13:34.326Z,49.02
2018-04-27T09:14:34.316Z,49.79
2018-04-27T09:15:34.302Z,49.60
2018-04-27T09:16:34.298Z,50.81
2018-04-27T09:17:34.275Z,51.39
2018-04-27T09:18:34.262Z,52.15
2018-04-27T09:19:34.250Z,51.48
2018-04-27T09:20:34.239Z,51.51
2018-04-27T09:21:34.249Z,51.03
2018-04-27T09:22:34.212Z,50.20
2018-04-27T09:23:34.202Z,49.79
2018-04-27T09:24:34.191Z,49.60
2018-04-27T09:25:34.178Z,50.36
2018-04-27T09:26:34.164Z,51.03
2018-04-27T09:27:34.170Z,51.13
2018-04-27T09:28:34.143Z,50.93
2018-04-27T09:29:34.129Z,49.98
2018-04-27T09:30:34.116Z,48.66
2018-04-27T09:31:34.106Z,47.80
2018-04-27T09:32:34.094Z,47.99
2018-04-27T09:33:34.086Z,47.15
2018-04-27T09:34:34.070Z,46.98
2018-04-27T09:35:34.064Z,45.74
2018-04-27T09:36:34.051Z,45.37
2018-04-27T09:37:34.038Z,45.47
2018-04-27T09:38:34.027Z,45.86
2018-04-27T09:39:34.017Z,45.57
2018-04-27T09:40:34.004Z,45.74
2018-04-27T09:41:33.994Z,46.22
2018-04-27T09:42:34.003Z,45.95
2018-04-27T09:43:33.979Z,44.54
2018-04-27T09:44:33.972Z,43.77
2018-04-27T09:45:33.963Z,44.42
2018-04-27T09:46:33.945Z,45.28
2018-04-27T09:47:33.934Z,45.67
2018-04-27T09:48:33.926Z,45.47
2018-04-27T09:49:33.916Z,45.67
2018-04-27T09:50:33.906Z,45.54
2018-04-27T09:51:33.898Z,45.95
2018-04-27T09:52:33.887Z,45.74
2018-04-27T09:53:33.882Z,46.41
2018-04-27T09:54:33.878Z,46.89
2018-04-27T09:55:33.862Z,46.05
2018-04-27T09:56:33.851Z,45.09
2018-04-27T09:57:33.857Z,44.80
2018-04-27T09:58:33.833Z,45.37
2018-04-27T09:59:33.823Z,45.00
2018-04-27T10:00:33.825Z,44.90
2018-04-27T10:01:33.813Z,45.28
2018-04-27T10:02:33.798Z,45.76
2018-04-27T10:03:33.787Z,45.37
2018-04-27T10:04:33.778Z,45.76
2018-04-27T10:05:33.777Z,45.67
2018-04-27T10:06:33.759Z,45.57
2018-04-27T10:07:33.760Z,45.88
2018-04-27T10:08:33.751Z,45.95
2018-04-27T10:09:33.735Z,45.95
2018-04-27T10:10:33.726Z,46.24
2018-04-27T10:11:33.718Z,46.24
2018-04-27T10:12:33.712Z,46.17
2018-04-27T10:13:33.702Z,45.68
2018-04-27T10:14:33.694Z,46.07
2018-04-27T10:15:33.685Z,45.68
2018-04-27T10:16:33.676Z,44.54
2018-04-27T10:17:33.669Z,44.23
2018-04-27T10:18:33.664Z,44.42
2018-04-27T10:19:33.652Z,44.34
2018-04-27T10:20:33.680Z,44.37
2018-04-27T10:21:33.637Z,43.88
2018-04-27T10:22:33.638Z,43.79
2018-04-27T10:23:33.635Z,42.83
2018-04-27T10:24:33.613Z,42.37
2018-04-27T10:25:33.609Z,42.47
2018-04-27T10:26:33.599Z,42.66
2018-04-27T10:27:33.590Z,43.14
2018-04-27T10:28:33.584Z,43.04
2018-04-27T10:29:33.576Z,43.31
2018-04-27T10:30:33.571Z,44.27
2018-04-27T10:31:33.565Z,45.04
2018-04-27T10:32:33.555Z,44.65
2018-04-27T10:33:33.549Z,44.27
2018-04-27T10:34:33.540Z,44.27
2018-04-27T10:35:33.534Z,44.37
2018-04-27T10:36:33.532Z,45.52
2018-04-27T10:37:33.521Z,44.77
2018-04-27T10:38:33.512Z,44.22
2018-04-27T10:39:33.511Z,43.45
2018-04-27T10:40:33.517Z,43.26
2018-04-27T10:41:33.495Z,42.49
2018-04-27T10:42:33.486Z,42.39
2018-04-27T10:43:33.489Z,42.49
2018-04-27T10:44:33.484Z,42.77
2018-04-27T10:45:33.469Z,42.58
2018-04-27T10:46:33.465Z,42.87
2018-04-27T10:47:33.458Z,41.89
2018-04-27T10:48:33.451Z,42.56
2018-04-27T10:49:33.446Z,42.47
2018-04-27T10:50:33.446Z,43.04
2018-04-27T10:51:33.433Z,43.14
2018-04-27T10:52:33.433Z,42.37
2018-04-27T10:53:33.422Z,43.33
2018-04-27T10:54:33.424Z,43.52
2018-04-27T10:55:33.410Z,43.23
2018-04-27T10:56:33.407Z,43.52
2018-04-27T10:57:33.398Z,43.14
2018-04-27T10:58:33.391Z,43.50
2018-04-27T10:59:33.439Z,42.93
2018-04-27T11:00:33.379Z,43.79
2018-04-27T11:01:33.378Z,44.17
2018-04-27T11:02:33.369Z,43.81
2018-04-27T11:03:33.359Z,44.29
2018-04-27T11:04:33.353Z,43.07
2018-04-27T11:05:33.347Z,43.14
2018-04-27T11:06:33.340Z,42.94
2018-04-27T11:07:33.334Z,43.71
2018-04-27T11:08:33.390Z,44.65
2018-04-27T11:09:33.329Z,45.04
2018-04-27T11:10:33.319Z,46.00
2018-04-27T11:11:33.315Z,45.32
2018-04-27T11:12:33.314Z,45.59
2018-04-27T11:13:33.293Z,45.98
2018-04-27T11:14:33.288Z,46.72
2018-04-27T11:15:33.289Z,46.94
2018-04-27T11:16:33.273Z,46.74
2018-04-27T11:17:33.265Z,46.55
2018-04-27T11:18:33.256Z,46.84
2018-04-27T11:19:33.300Z,46.36
2018-04-27T11:20:33.244Z,46.84
2018-04-27T11:21:33.234Z,46.26
2018-04-27T11:22:33.227Z,46.94
2018-04-27T11:23:33.227Z,46.72
2018-04-27T11:24:33.224Z,47.39
2018-04-27T11:25:33.205Z,47.37
2018-04-27T11:26:33.199Z,47.68
2018-04-27T11:27:33.187Z,47.10
2018-04-27T11:28:33.178Z,46.84
2018-04-27T11:29:33.184Z,46.74
2018-04-27T11:30:33.159Z,46.74
2018-04-27T11:31:33.157Z,47.25
2018-04-27T11:32:33.150Z,46.84
2018-04-27T11:33:33.139Z,47.30
2018-04-27T11:34:33.122Z,47.71
2018-04-27T11:35:33.113Z,46.84
2018-04-27T11:36:33.119Z,46.26
2018-04-27T11:37:33.097Z,47.32
2018-04-27T11:38:33.085Z,46.67
2018-04-27T11:39:33.075Z,45.42
2018-04-27T11:40:33.069Z,45.52
2018-04-27T11:41:33.067Z,43.62
2018-04-27T11:42:33.058Z,42.49
2018-04-27T11:43:33.042Z,42.20
2018-04-27T11:44:33.028Z,42.94
2018-04-27T11:45:33.021Z,44.56
2018-04-27T11:46:33.009Z,45.40
2018-04-27T11:47:33.000Z,45.42
2018-04-27T11:48:32.991Z,44.08
2018-04-27T11:49:33.052Z,43.81
2018-04-27T11:50:32.988Z,42.94
2018-04-27T11:51:32.962Z,43.50
2018-04-27T11:52:32.954Z,44.27
2018-04-27T11:53:32.948Z,43.07
2018-04-27T11:54:32.936Z,41.45
2018-04-27T11:55:32.925Z,41.55
2018-04-27T11:56:32.923Z,39.93
2018-04-27T11:57:32.915Z,39.26
2018-04-27T11:58:32.899Z,40.22
2018-04-27T11:59:32.887Z,40.12
2018-04-27T12:00:32.907Z,40.97
2018-04-27T12:01:32.869Z,40.56
2018-04-27T12:02:32.861Z,41.89
2018-04-27T12:03:32.850Z,42.93
2018-04-27T12:04:32.841Z,43.21
2018-04-27T12:05:32.837Z,42.73
2018-04-27T12:06:32.818Z,42.73
2018-04-27T12:07:32.813Z,42.83
2018-04-27T12:08:32.801Z,42.16
2018-04-27T12:09:32.790Z,42.25
2018-04-27T12:10:32.779Z,42.56
2018-04-27T12:11:32.771Z,41.31
2018-04-27T12:12:32.761Z,41.96
2018-04-27T12:13:32.750Z,42.35
2018-04-27T12:14:32.740Z,41.87
2018-04-27T12:15:32.750Z,42.13
2018-04-27T12:16:32.734Z,43.19
2018-04-27T12:17:32.793Z,44.15
2018-04-27T12:18:32.698Z,44.34
2018-04-27T12:19:32.688Z,42.52
2018-04-27T12:20:32.679Z,42.52
2018-04-27T12:21:32.671Z,42.23
2018-04-27T12:22:32.661Z,41.75
2018-04-27T12:23:32.647Z,42.33
2018-04-27T12:24:32.648Z,42.13
2018-04-27T12:25:32.633Z,41.94
2018-04-27T12:26:32.614Z,42.61
2018-04-27T12:27:32.607Z,42.23
2018-04-27T12:28:32.592Z,42.43
2018-04-27T12:29:32.581Z,42.43
2018-04-27T12:30:32.574Z,42.79
2018-04-27T12:31:32.597Z,43.36
2018-04-27T12:32:32.548Z,43.17
2018-04-27T12:33:32.538Z,43.17
2018-04-27T12:34:32.531Z,43.36
2018-04-27T12:35:32.515Z,42.81
2018-04-27T12:36:32.503Z,42.33
2018-04-27T12:37:32.510Z,42.73
2018-04-27T12:38:32.479Z,41.85
2018-04-27T12:39:32.468Z,42.04
2018-04-27T12:40:32.465Z,41.37
2018-04-27T12:41:32.450Z,40.02
2018-04-27T12:42:32.433Z,39.95
2018-04-27T12:43:32.423Z,39.76
2018-04-27T12:44:32.414Z,39.49
2018-04-27T12:45:32.405Z,39.18
2018-04-27T12:46:32.393Z,39.83
2018-04-27T12:47:32.376Z,39.83
2018-04-27T12:48:32.366Z,40.48
2018-04-27T12:49:32.363Z,40.87
2018-04-27T12:50:32.353Z,41.63
2018-04-27T12:51:32.333Z,41.63
2018-04-27T12:52:32.319Z,41.17